sensor_id;sensor_type;location;lat;lon;timestamp;temperature;humidity
2158;DHT22;41972;48.774;9.282;2023-07-31T00:02:02;13.70;99.90
2158;DHT22;41972;48.774;9.282;2023-07-31T00:04:27;13.50;99.90
2158;DHT22;41972;48.774;9.282;2023-07-31T00:06:53;13.50;99.90
2158;DHT22;41972;48.774;9.282;2023-07-31T00:09:18;13.50;99.90
2158;DHT22;41972;48.774;9.282;2023-07-31T00:11:44;13.40;99.90
2158;DHT22;41972;48.774;9.282;2023-07-31T00:14:10;13.50;99.90
2158;DHT22;41972;48.774;9.282;2023-07-31T00:16:35;13.50;99.90
2158;DHT22;41972;48.774;9.282;2023-07-31T00:19:01;13.50;99.90
2158;DHT22;41972;48.774;9.282;2023-07-31T00:21:26;13.50;99.90
2158;DHT22;41972;48.774;9.282;2023-07-31T00:23:52;13.40;99.90
2158;DHT22;41972;48.774;9.282;2023-07-31T00:26:17;13.40;99.90
2158;DHT22;41972;48.774;9.282;2023-07-31T00:28:43;13.40;99.90
2158;DHT22;41972;48.774;9.282;2023-07-31T00:31:08;13.40;99.90
2158;DHT22;41972;48.774;9.282;2023-07-31T00:33:35;13.40;99.90
2158;DHT22;41972;48.774;9.282;2023-07-31T00:36:00;13.40;99.90
2158;DHT22;41972;48.774;9.282;2023-07-31T00:38:26;13.30;99.90
2158;DHT22;41972;48.774;9.282;2023-07-31T00:40:52;13.40;99.90
2158;DHT22;41972;48.774;9.282;2023-07-31T00:43:17;13.40;99.90
2158;DHT22;41972;48.774;9.282;2023-07-31T00:45:43;13.30;99.90
2158;DHT22;41972;48.774;9.282;2023-07-31T00:48:08;13.20;99.90
2158;DHT22;41972;48.774;9.282;2023-07-31T00:50:35;13.20;99.90
2158;DHT22;41972;48.774;9.282;2023-07-31T00:53:01;13.30;99.90
2158;DHT22;41972;48.774;9.282;2023-07-31T00:55:27;13.40;99.90
2158;DHT22;41972;48.774;9.282;2023-07-31T00:57:53;13.50;99.90
2158;DHT22;41972;48.774;9.282;2023-07-31T01:00:21;13.50;99.90
2158;DHT22;41972;48.774;9.282;2023-07-31T01:02:48;13.40;99.90
2158;DHT22;41972;48.774;9.282;2023-07-31T01:05:14;13.40;99.90
2158;DHT22;41972;48.774;9.282;2023-07-31T01:10:26;13.20;99.90
2158;DHT22;41972;48.774;9.282;2023-07-31T01:12:56;13.10;99.90
2158;DHT22;41972;48.774;9.282;2023-07-31T01:15:23;13.10;99.90
2158;DHT22;41972;48.774;9.282;2023-07-31T01:17:48;13.00;99.90
2158;DHT22;41972;48.774;9.282;2023-07-31T01:20:18;12.90;99.90
2158;DHT22;41972;48.774;9.282;2023-07-31T01:31:18;12.80;99.90
2158;DHT22;41972;48.774;9.282;2023-07-31T01:33:45;12.90;99.90
2158;DHT22;41972;48.774;9.282;2023-07-31T01:36:11;12.90;99.90
2158;DHT22;41972;48.774;9.282;2023-07-31T01:38:37;12.90;99.90
2158;DHT22;41972;48.774;9.282;2023-07-31T01:41:04;12.90;99.90
2158;DHT22;41972;48.774;9.282;2023-07-31T01:43:29;13.00;99.90
2158;DHT22;41972;48.774;9.282;2023-07-31T01:45:55;12.90;99.90
2158;DHT22;41972;48.774;9.282;2023-07-31T01:48:20;12.90;99.90
2158;DHT22;41972;48.774;9.282;2023-07-31T01:50:46;12.90;99.90
2158;DHT22;41972;48.774;9.282;2023-07-31T01:53:11;13.00;99.90
2158;DHT22;41972;48.774;9.282;2023-07-31T01:55:38;13.00;99.90
2158;DHT22;41972;48.774;9.282;2023-07-31T01:58:04;13.00;99.90
2158;DHT22;41972;48.774;9.282;2023-07-31T02:00:29;12.90;99.90
2158;DHT22;41972;48.774;9.282;2023-07-31T02:02:55;12.90;99.90
2158;DHT22;41972;48.774;9.282;2023-07-31T02:05:21;13.00;99.90
2158;DHT22;41972;48.774;9.282;2023-07-31T02:07:46;13.00;99.90
2158;DHT22;41972;48.774;9.282;2023-07-31T02:10:12;13.10;99.90
2158;DHT22;41972;48.774;9.282;2023-07-31T02:12:37;13.00;99.90
2158;DHT22;41972;48.774;9.282;2023-07-31T02:15:03;13.00;99.90
2158;DHT22;41972;48.774;9.282;2023-07-31T02:17:29;13.20;99.90
2158;DHT22;41972;48.774;9.282;2023-07-31T02:19:55;13.20;99.90
2158;DHT22;41972;48.774;9.282;2023-07-31T02:22:20;13.10;99.90
2158;DHT22;41972;48.774;9.282;2023-07-31T02:24:46;13.00;99.90
2158;DHT22;41972;48.774;9.282;2023-07-31T02:27:11;12.90;99.90
2158;DHT22;41972;48.774;9.282;2023-07-31T02:29:37;13.00;99.90
2158;DHT22;41972;48.774;9.282;2023-07-31T02:32:03;13.00;99.90
2158;DHT22;41972;48.774;9.282;2023-07-31T02:34:28;13.00;99.90
2158;DHT22;41972;48.774;9.282;2023-07-31T02:36:54;13.00;99.90
2158;DHT22;41972;48.774;9.282;2023-07-31T02:39:19;13.00;99.90
2158;DHT22;41972;48.774;9.282;2023-07-31T02:41:45;13.10;99.90
2158;DHT22;41972;48.774;9.282;2023-07-31T02:44:10;13.20;99.90
2158;DHT22;41972;48.774;9.282;2023-07-31T02:46:38;13.20;99.90
2158;DHT22;41972;48.774;9.282;2023-07-31T02:49:04;13.20;99.90
2158;DHT22;41972;48.774;9.282;2023-07-31T02:51:30;13.20;99.90
2158;DHT22;41972;48.774;9.282;2023-07-31T02:53:55;13.30;99.90
2158;DHT22;41972;48.774;9.282;2023-07-31T02:56:21;13.30;99.90
2158;DHT22;41972;48.774;9.282;2023-07-31T02:58:46;13.30;99.90
2158;DHT22;41972;48.774;9.282;2023-07-31T03:01:12;13.30;99.90
2158;DHT22;41972;48.774;9.282;2023-07-31T03:03:37;13.20;99.90
2158;DHT22;41972;48.774;9.282;2023-07-31T03:06:03;13.20;99.90
2158;DHT22;41972;48.774;9.282;2023-07-31T03:08:29;13.20;99.90
2158;DHT22;41972;48.774;9.282;2023-07-31T03:10:54;13.20;99.90
2158;DHT22;41972;48.774;9.282;2023-07-31T03:13:21;13.20;99.90
2158;DHT22;41972;48.774;9.282;2023-07-31T03:15:47;13.20;99.90
2158;DHT22;41972;48.774;9.282;2023-07-31T03:18:12;13.20;99.90
2158;DHT22;41972;48.774;9.282;2023-07-31T03:20:42;13.10;99.90
2158;DHT22;41972;48.774;9.282;2023-07-31T03:23:08;13.10;99.90
2158;DHT22;41972;48.774;9.282;2023-07-31T03:25:33;13.20;99.90
2158;DHT22;41972;48.774;9.282;2023-07-31T03:27:59;13.20;99.90
2158;DHT22;41972;48.774;9.282;2023-07-31T03:30:24;13.30;99.90
2158;DHT22;41972;48.774;9.282;2023-07-31T03:32:50;13.50;99.90
2158;DHT22;41972;48.774;9.282;2023-07-31T03:35:15;13.60;99.90
2158;DHT22;41972;48.774;9.282;2023-07-31T03:37:41;13.60;99.90
2158;DHT22;41972;48.774;9.282;2023-07-31T03:40:07;13.60;99.90
2158;DHT22;41972;48.774;9.282;2023-07-31T03:42:33;13.60;99.90
2158;DHT22;41972;48.774;9.282;2023-07-31T03:44:58;13.60;99.90
2158;DHT22;41972;48.774;9.282;2023-07-31T03:47:24;13.50;99.90
2158;DHT22;41972;48.774;9.282;2023-07-31T03:49:49;13.50;99.90
2158;DHT22;41972;48.774;9.282;2023-07-31T03:52:15;13.50;99.90
2158;DHT22;41972;48.774;9.282;2023-07-31T03:54:41;13.50;99.90
2158;DHT22;41972;48.774;9.282;2023-07-31T03:57:06;13.40;99.90
2158;DHT22;41972;48.774;9.282;2023-07-31T03:59:32;13.40;99.90
2158;DHT22;41972;48.774;9.282;2023-07-31T04:01:58;13.70;99.90
2158;DHT22;41972;48.774;9.282;2023-07-31T04:04:23;13.50;99.90
2158;DHT22;41972;48.774;9.282;2023-07-31T04:06:49;13.50;99.90
2158;DHT22;41972;48.774;9.282;2023-07-31T04:09:14;13.60;99.90
2158;DHT22;41972;48.774;9.282;2023-07-31T04:11:40;13.80;99.90
2158;DHT22;41972;48.774;9.282;2023-07-31T04:14:05;13.90;99.90
2158;DHT22;41972;48.774;9.282;2023-07-31T04:16:31;14.00;99.90
2158;DHT22;41972;48.774;9.282;2023-07-31T04:18:56;14.10;99.90
2158;DHT22;41972;48.774;9.282;2023-07-31T04:21:22;14.30;99.90
2158;DHT22;41972;48.774;9.282;2023-07-31T04:23:48;14.40;99.90
2158;DHT22;41972;48.774;9.282;2023-07-31T04:26:13;14.60;99.90
2158;DHT22;41972;48.774;9.282;2023-07-31T04:28:39;14.70;99.90
2158;DHT22;41972;48.774;9.282;2023-07-31T04:31:04;14.90;99.90
2158;DHT22;41972;48.774;9.282;2023-07-31T04:33:30;14.90;99.90
2158;DHT22;41972;48.774;9.282;2023-07-31T04:35:55;15.00;99.90
2158;DHT22;41972;48.774;9.282;2023-07-31T04:38:21;15.00;99.90
2158;DHT22;41972;48.774;9.282;2023-07-31T04:40:47;15.00;99.90
2158;DHT22;41972;48.774;9.282;2023-07-31T04:43:13;15.10;99.90
2158;DHT22;41972;48.774;9.282;2023-07-31T04:45:39;15.00;99.90
2158;DHT22;41972;48.774;9.282;2023-07-31T04:48:04;15.20;99.90
2158;DHT22;41972;48.774;9.282;2023-07-31T04:50:30;15.10;99.90
2158;DHT22;41972;48.774;9.282;2023-07-31T04:52:56;15.20;99.90
2158;DHT22;41972;48.774;9.282;2023-07-31T04:55:23;15.50;99.90
2158;DHT22;41972;48.774;9.282;2023-07-31T04:57:49;15.80;99.90
2158;DHT22;41972;48.774;9.282;2023-07-31T05:00:15;15.40;99.90
2158;DHT22;41972;48.774;9.282;2023-07-31T05:02:40;15.50;99.90
2158;DHT22;41972;48.774;9.282;2023-07-31T05:05:06;15.90;99.90
2158;DHT22;41972;48.774;9.282;2023-07-31T05:07:32;16.30;99.90
2158;DHT22;41972;48.774;9.282;2023-07-31T05:09:57;16.40;99.90
2158;DHT22;41972;48.774;9.282;2023-07-31T05:12:23;16.30;99.90
2158;DHT22;41972;48.774;9.282;2023-07-31T05:14:49;16.20;99.90
2158;DHT22;41972;48.774;9.282;2023-07-31T05:17:14;15.70;99.90
2158;DHT22;41972;48.774;9.282;2023-07-31T05:19:40;15.80;99.90
2158;DHT22;41972;48.774;9.282;2023-07-31T05:22:05;15.80;99.90
2158;DHT22;41972;48.774;9.282;2023-07-31T05:24:31;15.80;99.90
2158;DHT22;41972;48.774;9.282;2023-07-31T05:26:57;15.50;99.90
2158;DHT22;41972;48.774;9.282;2023-07-31T05:29:23;15.50;99.90
2158;DHT22;41972;48.774;9.282;2023-07-31T05:31:49;15.50;99.90
2158;DHT22;41972;48.774;9.282;2023-07-31T05:34:14;15.30;99.90
2158;DHT22;41972;48.774;9.282;2023-07-31T05:36:41;15.70;99.90
2158;DHT22;41972;48.774;9.282;2023-07-31T05:39:06;15.70;99.90
2158;DHT22;41972;48.774;9.282;2023-07-31T05:41:35;15.90;99.90
2158;DHT22;41972;48.774;9.282;2023-07-31T05:44:00;16.20;99.90
2158;DHT22;41972;48.774;9.282;2023-07-31T05:46:26;16.50;99.90
2158;DHT22;41972;48.774;9.282;2023-07-31T05:48:51;16.90;99.90
2158;DHT22;41972;48.774;9.282;2023-07-31T05:51:17;17.50;99.90
2158;DHT22;41972;48.774;9.282;2023-07-31T05:53:42;17.60;99.90
2158;DHT22;41972;48.774;9.282;2023-07-31T05:56:09;17.90;99.90
2158;DHT22;41972;48.774;9.282;2023-07-31T05:58:34;17.60;99.90
2158;DHT22;41972;48.774;9.282;2023-07-31T06:01:00;17.90;99.90
2158;DHT22;41972;48.774;9.282;2023-07-31T06:03:25;17.90;99.90
2158;DHT22;41972;48.774;9.282;2023-07-31T06:05:51;18.40;99.90
2158;DHT22;41972;48.774;9.282;2023-07-31T06:08:16;18.50;99.90
2158;DHT22;41972;48.774;9.282;2023-07-31T06:10:42;17.90;99.90
2158;DHT22;41972;48.774;9.282;2023-07-31T06:13:07;18.10;99.90
2158;DHT22;41972;48.774;9.282;2023-07-31T06:15:33;18.00;99.90
2158;DHT22;41972;48.774;9.282;2023-07-31T06:17:59;18.40;99.90
2158;DHT22;41972;48.774;9.282;2023-07-31T06:20:27;18.90;99.90
2158;DHT22;41972;48.774;9.282;2023-07-31T06:22:53;19.80;99.90
2158;DHT22;41972;48.774;9.282;2023-07-31T06:25:18;20.10;99.90
2158;DHT22;41972;48.774;9.282;2023-07-31T06:27:44;20.30;99.90
2158;DHT22;41972;48.774;9.282;2023-07-31T06:30:10;20.30;99.90
2158;DHT22;41972;48.774;9.282;2023-07-31T06:32:35;20.60;99.90
2158;DHT22;41972;48.774;9.282;2023-07-31T06:35:01;20.90;99.90
2158;DHT22;41972;48.774;9.282;2023-07-31T06:37:27;22.10;99.90
2158;DHT22;41972;48.774;9.282;2023-07-31T06:39:52;22.80;99.90
2158;DHT22;41972;48.774;9.282;2023-07-31T06:42:18;22.20;99.90
2158;DHT22;41972;48.774;9.282;2023-07-31T06:44:43;22.20;99.90
2158;DHT22;41972;48.774;9.282;2023-07-31T06:47:09;22.50;99.90
2158;DHT22;41972;48.774;9.282;2023-07-31T06:49:34;21.30;99.90
2158;DHT22;41972;48.774;9.282;2023-07-31T06:52:00;19.90;99.90
2158;DHT22;41972;48.774;9.282;2023-07-31T06:54:25;20.20;99.90
2158;DHT22;41972;48.774;9.282;2023-07-31T06:56:51;21.20;99.90
2158;DHT22;41972;48.774;9.282;2023-07-31T06:59:18;21.00;99.90
2158;DHT22;41972;48.774;9.282;2023-07-31T07:01:43;21.10;99.90
2158;DHT22;41972;48.774;9.282;2023-07-31T07:04:09;20.80;99.90
2158;DHT22;41972;48.774;9.282;2023-07-31T07:06:34;22.20;99.90
2158;DHT22;41972;48.774;9.282;2023-07-31T07:09:00;23.10;99.90
2158;DHT22;41972;48.774;9.282;2023-07-31T07:11:26;23.80;99.90
2158;DHT22;41972;48.774;9.282;2023-07-31T07:13:51;24.20;99.90
2158;DHT22;41972;48.774;9.282;2023-07-31T07:16:17;21.70;99.90
2158;DHT22;41972;48.774;9.282;2023-07-31T07:18:43;21.30;99.90
2158;DHT22;41972;48.774;9.282;2023-07-31T07:21:08;20.40;99.90
2158;DHT22;41972;48.774;9.282;2023-07-31T07:23:34;22.00;99.90
2158;DHT22;41972;48.774;9.282;2023-07-31T07:25:59;24.40;99.90
2158;DHT22;41972;48.774;9.282;2023-07-31T07:28:25;25.50;99.90
2158;DHT22;41972;48.774;9.282;2023-07-31T07:30:54;24.80;99.90
2158;DHT22;41972;48.774;9.282;2023-07-31T07:33:20;25.00;99.90
2158;DHT22;41972;48.774;9.282;2023-07-31T07:35:45;23.80;99.90
2158;DHT22;41972;48.774;9.282;2023-07-31T07:38:11;23.00;99.90
2158;DHT22;41972;48.774;9.282;2023-07-31T07:40:40;22.90;99.90
2158;DHT22;41972;48.774;9.282;2023-07-31T07:43:05;23.20;99.90
2158;DHT22;41972;48.774;9.282;2023-07-31T07:45:31;23.00;99.90
2158;DHT22;41972;48.774;9.282;2023-07-31T07:47:57;21.60;99.90
2158;DHT22;41972;48.774;9.282;2023-07-31T07:50:23;22.00;99.90
2158;DHT22;41972;48.774;9.282;2023-07-31T07:52:48;22.70;99.90
2158;DHT22;41972;48.774;9.282;2023-07-31T07:55:14;24.40;99.90
2158;DHT22;41972;48.774;9.282;2023-07-31T07:57:40;25.20;99.90
2158;DHT22;41972;48.774;9.282;2023-07-31T08:00:06;28.10;99.90
2158;DHT22;41972;48.774;9.282;2023-07-31T08:02:31;28.10;99.90
2158;DHT22;41972;48.774;9.282;2023-07-31T08:04:57;26.20;99.90
2158;DHT22;41972;48.774;9.282;2023-07-31T08:07:23;28.10;99.90
2158;DHT22;41972;48.774;9.282;2023-07-31T08:09:48;30.00;99.90
2158;DHT22;41972;48.774;9.282;2023-07-31T08:12:15;30.20;99.90
2158;DHT22;41972;48.774;9.282;2023-07-31T08:14:41;31.00;99.90
2158;DHT22;41972;48.774;9.282;2023-07-31T08:17:06;32.40;99.90
2158;DHT22;41972;48.774;9.282;2023-07-31T08:19:32;32.60;99.90
2158;DHT22;41972;48.774;9.282;2023-07-31T08:21:57;30.60;99.90
2158;DHT22;41972;48.774;9.282;2023-07-31T08:24:23;29.70;99.90
2158;DHT22;41972;48.774;9.282;2023-07-31T08:26:48;26.60;99.90
2158;DHT22;41972;48.774;9.282;2023-07-31T08:29:14;26.40;99.90
2158;DHT22;41972;48.774;9.282;2023-07-31T08:31:40;27.30;99.90
2158;DHT22;41972;48.774;9.282;2023-07-31T08:34:05;24.70;99.90
2158;DHT22;41972;48.774;9.282;2023-07-31T08:36:31;25.10;99.90
2158;DHT22;41972;48.774;9.282;2023-07-31T08:38:57;25.60;99.90
2158;DHT22;41972;48.774;9.282;2023-07-31T08:41:22;29.80;99.90
2158;DHT22;41972;48.774;9.282;2023-07-31T08:43:49;27.10;99.90
2158;DHT22;41972;48.774;9.282;2023-07-31T08:46:15;27.00;99.90
2158;DHT22;41972;48.774;9.282;2023-07-31T08:48:44;25.20;99.90
2158;DHT22;41972;48.774;9.282;2023-07-31T08:51:10;25.30;99.90
2158;DHT22;41972;48.774;9.282;2023-07-31T08:53:36;26.80;99.90
2158;DHT22;41972;48.774;9.282;2023-07-31T08:56:02;29.40;99.90
2158;DHT22;41972;48.774;9.282;2023-07-31T08:58:31;32.30;99.90
2158;DHT22;41972;48.774;9.282;2023-07-31T09:01:01;33.70;99.90
2158;DHT22;41972;48.774;9.282;2023-07-31T09:03:29;28.40;99.90
2158;DHT22;41972;48.774;9.282;2023-07-31T09:05:56;30.50;99.90
2158;DHT22;41972;48.774;9.282;2023-07-31T09:08:26;31.30;99.90
2158;DHT22;41972;48.774;9.282;2023-07-31T09:11:00;29.20;99.90
2158;DHT22;41972;48.774;9.282;2023-07-31T09:13:28;29.70;99.90
2158;DHT22;41972;48.774;9.282;2023-07-31T09:15:54;29.30;99.90
2158;DHT22;41972;48.774;9.282;2023-07-31T09:18:20;28.20;99.90
2158;DHT22;41972;48.774;9.282;2023-07-31T09:21:01;28.80;99.90
2158;DHT22;41972;48.774;9.282;2023-07-31T09:23:43;29.80;99.90
2158;DHT22;41972;48.774;9.282;2023-07-31T09:26:09;30.60;99.90
2158;DHT22;41972;48.774;9.282;2023-07-31T09:28:35;31.20;99.90
2158;DHT22;41972;48.774;9.282;2023-07-31T09:31:01;28.90;99.90
2158;DHT22;41972;48.774;9.282;2023-07-31T09:33:26;28.10;99.90
2158;DHT22;41972;48.774;9.282;2023-07-31T09:35:52;25.60;99.90
2158;DHT22;41972;48.774;9.282;2023-07-31T09:38:18;25.20;99.90
2158;DHT22;41972;48.774;9.282;2023-07-31T09:40:46;24.90;99.90
2158;DHT22;41972;48.774;9.282;2023-07-31T09:43:17;24.70;99.90
2158;DHT22;41972;48.774;9.282;2023-07-31T09:45:44;24.90;99.90
2158;DHT22;41972;48.774;9.282;2023-07-31T09:48:14;24.10;99.90
2158;DHT22;41972;48.774;9.282;2023-07-31T09:50:43;23.80;99.90
2158;DHT22;41972;48.774;9.282;2023-07-31T09:53:11;23.20;99.90
2158;DHT22;41972;48.774;9.282;2023-07-31T09:55:37;23.90;99.90
2158;DHT22;41972;48.774;9.282;2023-07-31T09:58:07;22.70;99.90
2158;DHT22;41972;48.774;9.282;2023-07-31T10:00:33;24.00;99.90
2158;DHT22;41972;48.774;9.282;2023-07-31T10:03:01;23.70;99.90
2158;DHT22;41972;48.774;9.282;2023-07-31T10:05:35;23.20;99.90
2158;DHT22;41972;48.774;9.282;2023-07-31T10:08:02;23.60;99.90
2158;DHT22;41972;48.774;9.282;2023-07-31T10:10:28;24.60;99.90
2158;DHT22;41972;48.774;9.282;2023-07-31T10:12:55;24.90;99.90
2158;DHT22;41972;48.774;9.282;2023-07-31T10:15:21;24.30;99.90
2158;DHT22;41972;48.774;9.282;2023-07-31T10:17:48;25.40;99.90
2158;DHT22;41972;48.774;9.282;2023-07-31T10:20:15;25.90;99.90
2158;DHT22;41972;48.774;9.282;2023-07-31T10:22:42;27.50;99.90
2158;DHT22;41972;48.774;9.282;2023-07-31T10:25:09;28.70;99.90
2158;DHT22;41972;48.774;9.282;2023-07-31T10:27:41;28.90;99.90
2158;DHT22;41972;48.774;9.282;2023-07-31T10:30:14;26.90;99.90
2158;DHT22;41972;48.774;9.282;2023-07-31T10:32:41;27.90;99.90
2158;DHT22;41972;48.774;9.282;2023-07-31T10:35:09;26.70;99.90
2158;DHT22;41972;48.774;9.282;2023-07-31T10:37:38;27.30;99.90
2158;DHT22;41972;48.774;9.282;2023-07-31T10:40:06;28.30;99.90
2158;DHT22;41972;48.774;9.282;2023-07-31T10:42:46;29.10;99.90
2158;DHT22;41972;48.774;9.282;2023-07-31T10:45:13;28.70;99.90
2158;DHT22;41972;48.774;9.282;2023-07-31T10:47:45;28.30;99.90
2158;DHT22;41972;48.774;9.282;2023-07-31T10:50:22;25.00;99.90
2158;DHT22;41972;48.774;9.282;2023-07-31T10:52:52;23.90;99.90
2158;DHT22;41972;48.774;9.282;2023-07-31T10:55:29;23.90;99.90
2158;DHT22;41972;48.774;9.282;2023-07-31T10:58:05;25.00;99.90
2158;DHT22;41972;48.774;9.282;2023-07-31T11:00:31;25.20;99.90
2158;DHT22;41972;48.774;9.282;2023-07-31T11:03:05;25.20;99.90
2158;DHT22;41972;48.774;9.282;2023-07-31T11:06:01;25.30;99.90
2158;DHT22;41972;48.774;9.282;2023-07-31T11:08:36;24.90;99.90
2158;DHT22;41972;48.774;9.282;2023-07-31T11:11:11;25.30;99.90
2158;DHT22;41972;48.774;9.282;2023-07-31T11:13:48;26.30;99.90
2158;DHT22;41972;48.774;9.282;2023-07-31T11:16:22;27.20;99.90
2158;DHT22;41972;48.774;9.282;2023-07-31T11:18:50;25.00;99.90
2158;DHT22;41972;48.774;9.282;2023-07-31T11:21:22;25.80;99.90
2158;DHT22;41972;48.774;9.282;2023-07-31T11:23:52;25.50;99.90
2158;DHT22;41972;48.774;9.282;2023-07-31T11:26:18;25.50;99.90
2158;DHT22;41972;48.774;9.282;2023-07-31T11:28:47;23.90;99.90
2158;DHT22;41972;48.774;9.282;2023-07-31T11:31:12;23.30;99.90
2158;DHT22;41972;48.774;9.282;2023-07-31T11:33:38;23.10;99.90
2158;DHT22;41972;48.774;9.282;2023-07-31T11:36:03;22.90;99.90
2158;DHT22;41972;48.774;9.282;2023-07-31T11:38:33;22.80;99.90
2158;DHT22;41972;48.774;9.282;2023-07-31T11:41:01;22.60;99.90
2158;DHT22;41972;48.774;9.282;2023-07-31T11:43:28;22.60;99.90
2158;DHT22;41972;48.774;9.282;2023-07-31T11:46:00;22.50;99.90
2158;DHT22;41972;48.774;9.282;2023-07-31T11:48:33;22.40;99.90
2158;DHT22;41972;48.774;9.282;2023-07-31T11:51:04;22.20;99.90
2158;DHT22;41972;48.774;9.282;2023-07-31T11:53:49;22.80;99.90
2158;DHT22;41972;48.774;9.282;2023-07-31T11:56:20;23.20;99.90
2158;DHT22;41972;48.774;9.282;2023-07-31T11:58:52;23.50;99.90
2158;DHT22;41972;48.774;9.282;2023-07-31T12:01:19;24.10;99.90
2158;DHT22;41972;48.774;9.282;2023-07-31T12:03:47;24.20;99.90
2158;DHT22;41972;48.774;9.282;2023-07-31T12:06:13;24.60;99.90
2158;DHT22;41972;48.774;9.282;2023-07-31T12:08:38;24.50;99.90
2158;DHT22;41972;48.774;9.282;2023-07-31T12:11:05;25.20;99.90
2158;DHT22;41972;48.774;9.282;2023-07-31T12:13:32;25.60;99.90
2158;DHT22;41972;48.774;9.282;2023-07-31T12:16:02;24.70;99.90
2158;DHT22;41972;48.774;9.282;2023-07-31T12:18:31;24.60;99.90
2158;DHT22;41972;48.774;9.282;2023-07-31T12:21:00;24.40;99.90
2158;DHT22;41972;48.774;9.282;2023-07-31T12:23:30;24.40;99.90
2158;DHT22;41972;48.774;9.282;2023-07-31T12:26:12;24.00;99.90
2158;DHT22;41972;48.774;9.282;2023-07-31T12:28:48;24.10;99.90
2158;DHT22;41972;48.774;9.282;2023-07-31T12:31:18;23.50;99.90
2158;DHT22;41972;48.774;9.282;2023-07-31T12:33:46;23.70;99.90
2158;DHT22;41972;48.774;9.282;2023-07-31T12:36:21;22.30;99.90
2158;DHT22;41972;48.774;9.282;2023-07-31T12:38:47;22.30;99.90
2158;DHT22;41972;48.774;9.282;2023-07-31T12:41:13;22.40;99.90
2158;DHT22;41972;48.774;9.282;2023-07-31T12:43:41;23.00;99.90
2158;DHT22;41972;48.774;9.282;2023-07-31T12:46:07;22.70;99.90
2158;DHT22;41972;48.774;9.282;2023-07-31T12:48:34;22.70;99.90
2158;DHT22;41972;48.774;9.282;2023-07-31T12:51:00;22.70;99.90
2158;DHT22;41972;48.774;9.282;2023-07-31T12:53:26;23.30;99.90
2158;DHT22;41972;48.774;9.282;2023-07-31T12:55:52;23.30;99.90
2158;DHT22;41972;48.774;9.282;2023-07-31T12:58:18;22.90;99.90
2158;DHT22;41972;48.774;9.282;2023-07-31T13:00:43;22.10;99.90
2158;DHT22;41972;48.774;9.282;2023-07-31T13:03:09;22.40;99.90
2158;DHT22;41972;48.774;9.282;2023-07-31T13:05:35;22.90;99.90
2158;DHT22;41972;48.774;9.282;2023-07-31T13:08:00;22.90;99.90
2158;DHT22;41972;48.774;9.282;2023-07-31T13:10:28;23.50;99.90
2158;DHT22;41972;48.774;9.282;2023-07-31T13:12:55;22.40;99.90
2158;DHT22;41972;48.774;9.282;2023-07-31T13:15:20;22.70;99.90
2158;DHT22;41972;48.774;9.282;2023-07-31T13:17:46;23.10;99.90
2158;DHT22;41972;48.774;9.282;2023-07-31T13:20:12;23.00;99.90
2158;DHT22;41972;48.774;9.282;2023-07-31T13:22:38;23.40;99.90
2158;DHT22;41972;48.774;9.282;2023-07-31T13:25:04;22.90;99.90
2158;DHT22;41972;48.774;9.282;2023-07-31T13:27:30;23.20;99.90
2158;DHT22;41972;48.774;9.282;2023-07-31T13:29:56;22.80;99.90
2158;DHT22;41972;48.774;9.282;2023-07-31T13:32:21;23.10;99.90
2158;DHT22;41972;48.774;9.282;2023-07-31T13:34:48;23.40;99.90
2158;DHT22;41972;48.774;9.282;2023-07-31T13:37:14;23.70;99.90
2158;DHT22;41972;48.774;9.282;2023-07-31T13:39:40;24.20;99.90
2158;DHT22;41972;48.774;9.282;2023-07-31T13:42:07;24.30;99.90
2158;DHT22;41972;48.774;9.282;2023-07-31T13:44:39;24.80;99.90
2158;DHT22;41972;48.774;9.282;2023-07-31T13:47:05;25.30;99.90
2158;DHT22;41972;48.774;9.282;2023-07-31T13:49:32;25.30;99.90
2158;DHT22;41972;48.774;9.282;2023-07-31T13:51:58;25.50;99.90
2158;DHT22;41972;48.774;9.282;2023-07-31T13:54:24;25.50;99.90
2158;DHT22;41972;48.774;9.282;2023-07-31T13:56:50;25.00;99.90
2158;DHT22;41972;48.774;9.282;2023-07-31T13:59:15;24.40;99.90
2158;DHT22;41972;48.774;9.282;2023-07-31T14:01:45;24.60;99.90
2158;DHT22;41972;48.774;9.282;2023-07-31T14:04:12;24.40;99.90
2158;DHT22;41972;48.774;9.282;2023-07-31T14:06:37;24.10;99.90
2158;DHT22;41972;48.774;9.282;2023-07-31T14:09:03;24.10;99.90
2158;DHT22;41972;48.774;9.282;2023-07-31T14:11:31;24.70;99.90
2158;DHT22;41972;48.774;9.282;2023-07-31T14:13:57;24.50;99.90
2158;DHT22;41972;48.774;9.282;2023-07-31T14:16:23;24.50;99.90
2158;DHT22;41972;48.774;9.282;2023-07-31T14:18:48;24.50;99.90
2158;DHT22;41972;48.774;9.282;2023-07-31T14:21:14;24.50;99.90
2158;DHT22;41972;48.774;9.282;2023-07-31T14:23:40;24.70;99.90
2158;DHT22;41972;48.774;9.282;2023-07-31T14:26:06;24.70;99.90
2158;DHT22;41972;48.774;9.282;2023-07-31T14:28:32;24.40;99.90
2158;DHT22;41972;48.774;9.282;2023-07-31T14:30:58;24.30;99.90
2158;DHT22;41972;48.774;9.282;2023-07-31T14:33:23;24.00;99.90
2158;DHT22;41972;48.774;9.282;2023-07-31T14:35:49;23.70;99.90
2158;DHT22;41972;48.774;9.282;2023-07-31T14:38:14;23.30;99.90
2158;DHT22;41972;48.774;9.282;2023-07-31T14:40:41;23.50;99.90
2158;DHT22;41972;48.774;9.282;2023-07-31T14:43:06;23.90;99.90
2158;DHT22;41972;48.774;9.282;2023-07-31T14:45:32;24.00;99.90
2158;DHT22;41972;48.774;9.282;2023-07-31T14:47:58;23.70;99.90
2158;DHT22;41972;48.774;9.282;2023-07-31T14:50:25;24.00;99.90
2158;DHT22;41972;48.774;9.282;2023-07-31T14:52:51;23.90;99.90
2158;DHT22;41972;48.774;9.282;2023-07-31T14:55:17;23.70;99.90
2158;DHT22;41972;48.774;9.282;2023-07-31T14:57:43;24.00;99.90
2158;DHT22;41972;48.774;9.282;2023-07-31T15:00:08;24.40;99.90
2158;DHT22;41972;48.774;9.282;2023-07-31T15:02:36;24.70;99.90
2158;DHT22;41972;48.774;9.282;2023-07-31T15:05:01;25.20;99.90
2158;DHT22;41972;48.774;9.282;2023-07-31T15:07:27;25.00;99.90
2158;DHT22;41972;48.774;9.282;2023-07-31T15:09:53;25.40;99.90
2158;DHT22;41972;48.774;9.282;2023-07-31T15:12:18;24.70;99.90
2158;DHT22;41972;48.774;9.282;2023-07-31T15:14:44;24.80;99.90
2158;DHT22;41972;48.774;9.282;2023-07-31T15:17:09;24.70;99.90
2158;DHT22;41972;48.774;9.282;2023-07-31T15:19:35;24.90;99.90
2158;DHT22;41972;48.774;9.282;2023-07-31T15:22:02;24.20;99.90
2158;DHT22;41972;48.774;9.282;2023-07-31T15:24:28;24.00;99.90
2158;DHT22;41972;48.774;9.282;2023-07-31T15:26:54;24.20;99.90
2158;DHT22;41972;48.774;9.282;2023-07-31T15:29:20;24.30;99.90
2158;DHT22;41972;48.774;9.282;2023-07-31T15:31:47;25.00;99.90
2158;DHT22;41972;48.774;9.282;2023-07-31T15:34:14;24.50;99.90
2158;DHT22;41972;48.774;9.282;2023-07-31T15:36:40;24.50;99.90
2158;DHT22;41972;48.774;9.282;2023-07-31T15:39:05;24.80;99.90
2158;DHT22;41972;48.774;9.282;2023-07-31T15:41:37;25.40;99.90
2158;DHT22;41972;48.774;9.282;2023-07-31T15:44:06;24.70;99.90
2158;DHT22;41972;48.774;9.282;2023-07-31T15:46:32;24.30;99.90
2158;DHT22;41972;48.774;9.282;2023-07-31T15:48:58;24.50;99.90
2158;DHT22;41972;48.774;9.282;2023-07-31T15:51:24;24.80;99.90
2158;DHT22;41972;48.774;9.282;2023-07-31T15:53:50;25.20;99.90